sensor_id;sensor_type;location;lat;lon;timestamp;temperature;humidity
24384;DHT22;12504;52.870;8.798;2023-05-31T00:02:00;10.20;99.90
24384;DHT22;12504;52.870;8.798;2023-05-31T00:04:25;10.20;99.90
24384;DHT22;12504;52.870;8.798;2023-05-31T00:06:51;10.20;99.90
24384;DHT22;12504;52.870;8.798;2023-05-31T00:09:17;10.20;99.90
24384;DHT22;12504;52.870;8.798;2023-05-31T00:11:42;10.20;99.90
24384;DHT22;12504;52.870;8.798;2023-05-31T00:14:08;10.10;99.90
24384;DHT22;12504;52.870;8.798;2023-05-31T00:16:33;10.10;99.90
24384;DHT22;12504;52.870;8.798;2023-05-31T00:18:59;10.10;99.90
24384;DHT22;12504;52.870;8.798;2023-05-31T00:21:25;10.10;99.90
24384;DHT22;12504;52.870;8.798;2023-05-31T00:23:51;10.20;99.90
24384;DHT22;12504;52.870;8.798;2023-05-31T00:26:16;10.20;99.90
24384;DHT22;12504;52.870;8.798;2023-05-31T00:28:44;10.10;99.90
24384;DHT22;12504;52.870;8.798;2023-05-31T00:31:09;10.10;99.90
24384;DHT22;12504;52.870;8.798;2023-05-31T00:33:35;10.10;99.90
24384;DHT22;12504;52.870;8.798;2023-05-31T00:36:00;10.20;99.90
24384;DHT22;12504;52.870;8.798;2023-05-31T00:38:26;10.20;99.90
24384;DHT22;12504;52.870;8.798;2023-05-31T00:40:53;10.10;99.90
24384;DHT22;12504;52.870;8.798;2023-05-31T00:43:18;10.10;99.90
24384;DHT22;12504;52.870;8.798;2023-05-31T00:45:44;10.10;99.90
24384;DHT22;12504;52.870;8.798;2023-05-31T00:48:09;10.00;99.90
24384;DHT22;12504;52.870;8.798;2023-05-31T00:50:35;10.10;99.90
24384;DHT22;12504;52.870;8.798;2023-05-31T00:53:01;10.00;99.90
24384;DHT22;12504;52.870;8.798;2023-05-31T00:55:27;10.00;99.90
24384;DHT22;12504;52.870;8.798;2023-05-31T00:57:53;10.00;99.90
24384;DHT22;12504;52.870;8.798;2023-05-31T01:00:18;9.90;99.90
24384;DHT22;12504;52.870;8.798;2023-05-31T01:02:44;9.80;99.90
24384;DHT22;12504;52.870;8.798;2023-05-31T01:05:10;9.80;99.90
24384;DHT22;12504;52.870;8.798;2023-05-31T01:07:36;9.70;99.90
24384;DHT22;12504;52.870;8.798;2023-05-31T01:10:03;9.70;99.90
24384;DHT22;12504;52.870;8.798;2023-05-31T01:17:28;9.50;99.90
24384;DHT22;12504;52.870;8.798;2023-05-31T01:20:04;9.40;99.90
24384;DHT22;12504;52.870;8.798;2023-05-31T01:22:35;9.40;99.90
24384;DHT22;12504;52.870;8.798;2023-05-31T01:27:52;9.30;99.90
24384;DHT22;12504;52.870;8.798;2023-05-31T01:30:18;9.20;99.90
24384;DHT22;12504;52.870;8.798;2023-05-31T01:32:46;9.10;99.90
24384;DHT22;12504;52.870;8.798;2023-05-31T01:35:13;9.10;99.90
24384;DHT22;12504;52.870;8.798;2023-05-31T01:37:38;9.00;99.90
24384;DHT22;12504;52.870;8.798;2023-05-31T01:40:05;9.00;99.90
24384;DHT22;12504;52.870;8.798;2023-05-31T01:42:31;9.00;99.90
24384;DHT22;12504;52.870;8.798;2023-05-31T01:44:59;9.00;99.90
24384;DHT22;12504;52.870;8.798;2023-05-31T01:47:24;9.00;99.90
24384;DHT22;12504;52.870;8.798;2023-05-31T01:49:51;8.90;99.90
24384;DHT22;12504;52.870;8.798;2023-05-31T01:52:18;8.90;99.90
24384;DHT22;12504;52.870;8.798;2023-05-31T01:54:44;8.80;99.90
24384;DHT22;12504;52.870;8.798;2023-05-31T01:57:10;8.80;99.90
24384;DHT22;12504;52.870;8.798;2023-05-31T01:59:38;8.80;99.90
24384;DHT22;12504;52.870;8.798;2023-05-31T02:02:06;8.70;99.90
24384;DHT22;12504;52.870;8.798;2023-05-31T02:04:32;8.70;99.90
24384;DHT22;12504;52.870;8.798;2023-05-31T02:06:58;8.70;99.90
24384;DHT22;12504;52.870;8.798;2023-05-31T02:09:26;8.70;99.90
24384;DHT22;12504;52.870;8.798;2023-05-31T02:11:51;8.70;99.90
24384;DHT22;12504;52.870;8.798;2023-05-31T02:14:17;8.70;99.90
24384;DHT22;12504;52.870;8.798;2023-05-31T02:16:42;8.70;99.90
24384;DHT22;12504;52.870;8.798;2023-05-31T02:19:08;8.60;99.90
24384;DHT22;12504;52.870;8.798;2023-05-31T02:21:34;8.60;99.90
24384;DHT22;12504;52.870;8.798;2023-05-31T02:24:03;8.50;99.90
24384;DHT22;12504;52.870;8.798;2023-05-31T02:26:28;8.60;99.90
24384;DHT22;12504;52.870;8.798;2023-05-31T02:28:54;8.60;99.90
24384;DHT22;12504;52.870;8.798;2023-05-31T02:31:20;8.60;99.90
24384;DHT22;12504;52.870;8.798;2023-05-31T02:33:47;8.60;99.90
24384;DHT22;12504;52.870;8.798;2023-05-31T02:36:13;8.60;99.90
24384;DHT22;12504;52.870;8.798;2023-05-31T02:38:39;8.70;99.90
24384;DHT22;12504;52.870;8.798;2023-05-31T02:41:04;8.70;99.90
24384;DHT22;12504;52.870;8.798;2023-05-31T02:43:30;8.80;99.90
24384;DHT22;12504;52.870;8.798;2023-05-31T02:45:56;8.90;99.90
24384;DHT22;12504;52.870;8.798;2023-05-31T02:48:22;9.00;99.90
24384;DHT22;12504;52.870;8.798;2023-05-31T02:50:48;9.10;99.90
24384;DHT22;12504;52.870;8.798;2023-05-31T02:53:28;9.20;99.90
24384;DHT22;12504;52.870;8.798;2023-05-31T02:56:02;9.20;99.90
24384;DHT22;12504;52.870;8.798;2023-05-31T02:58:42;9.30;99.90
24384;DHT22;12504;52.870;8.798;2023-05-31T03:01:26;9.30;99.90
24384;DHT22;12504;52.870;8.798;2023-05-31T03:04:12;9.30;99.90
24384;DHT22;12504;52.870;8.798;2023-05-31T03:06:38;9.30;99.90
24384;DHT22;12504;52.870;8.798;2023-05-31T03:09:05;9.40;99.90
24384;DHT22;12504;52.870;8.798;2023-05-31T03:11:33;9.40;99.90
24384;DHT22;12504;52.870;8.798;2023-05-31T03:13:59;9.30;99.90
24384;DHT22;12504;52.870;8.798;2023-05-31T03:16:39;9.40;99.90
24384;DHT22;12504;52.870;8.798;2023-05-31T03:19:05;9.40;99.90
24384;DHT22;12504;52.870;8.798;2023-05-31T03:21:31;9.40;99.90
24384;DHT22;12504;52.870;8.798;2023-05-31T03:23:57;9.40;99.90
24384;DHT22;12504;52.870;8.798;2023-05-31T03:26:22;9.40;99.90
24384;DHT22;12504;52.870;8.798;2023-05-31T03:28:48;9.50;99.90
24384;DHT22;12504;52.870;8.798;2023-05-31T03:31:13;9.50;99.90
24384;DHT22;12504;52.870;8.798;2023-05-31T03:33:39;9.50;99.90
24384;DHT22;12504;52.870;8.798;2023-05-31T03:36:05;9.50;99.90
24384;DHT22;12504;52.870;8.798;2023-05-31T03:38:30;9.50;99.90
24384;DHT22;12504;52.870;8.798;2023-05-31T03:40:56;9.50;99.90
24384;DHT22;12504;52.870;8.798;2023-05-31T03:43:23;9.50;99.90
24384;DHT22;12504;52.870;8.798;2023-05-31T03:45:48;9.50;99.90
24384;DHT22;12504;52.870;8.798;2023-05-31T03:48:14;9.60;99.90
24384;DHT22;12504;52.870;8.798;2023-05-31T03:50:40;9.60;99.90
24384;DHT22;12504;52.870;8.798;2023-05-31T03:53:06;9.60;99.90
24384;DHT22;12504;52.870;8.798;2023-05-31T03:55:31;9.70;99.90
24384;DHT22;12504;52.870;8.798;2023-05-31T03:57:58;9.60;99.90
24384;DHT22;12504;52.870;8.798;2023-05-31T04:00:23;9.70;99.90
24384;DHT22;12504;52.870;8.798;2023-05-31T04:02:52;9.70;99.90
24384;DHT22;12504;52.870;8.798;2023-05-31T04:05:17;9.70;99.90
24384;DHT22;12504;52.870;8.798;2023-05-31T04:07:43;9.80;99.90
24384;DHT22;12504;52.870;8.798;2023-05-31T04:10:09;9.80;99.90
24384;DHT22;12504;52.870;8.798;2023-05-31T04:12:34;9.80;99.90
24384;DHT22;12504;52.870;8.798;2023-05-31T04:15:00;9.80;99.90
24384;DHT22;12504;52.870;8.798;2023-05-31T04:17:26;9.80;99.90
24384;DHT22;12504;52.870;8.798;2023-05-31T04:19:52;9.80;99.90
24384;DHT22;12504;52.870;8.798;2023-05-31T04:22:18;9.70;99.90
24384;DHT22;12504;52.870;8.798;2023-05-31T04:24:43;9.60;99.90
24384;DHT22;12504;52.870;8.798;2023-05-31T04:27:13;9.60;99.90
24384;DHT22;12504;52.870;8.798;2023-05-31T04:29:44;9.60;99.90
24384;DHT22;12504;52.870;8.798;2023-05-31T04:32:16;9.50;99.90
24384;DHT22;12504;52.870;8.798;2023-05-31T04:34:42;9.60;99.90
24384;DHT22;12504;52.870;8.798;2023-05-31T04:37:08;9.60;99.90
24384;DHT22;12504;52.870;8.798;2023-05-31T04:39:34;9.70;99.90
24384;DHT22;12504;52.870;8.798;2023-05-31T04:42:00;9.70;99.90
24384;DHT22;12504;52.870;8.798;2023-05-31T04:44:26;9.80;99.90
24384;DHT22;12504;52.870;8.798;2023-05-31T04:46:54;9.90;99.90
24384;DHT22;12504;52.870;8.798;2023-05-31T04:49:20;9.70;99.90
24384;DHT22;12504;52.870;8.798;2023-05-31T04:51:47;9.70;99.90
24384;DHT22;12504;52.870;8.798;2023-05-31T04:54:12;9.80;99.90
24384;DHT22;12504;52.870;8.798;2023-05-31T04:56:38;9.90;99.90
24384;DHT22;12504;52.870;8.798;2023-05-31T04:59:04;10.00;99.90
24384;DHT22;12504;52.870;8.798;2023-05-31T05:01:30;10.10;99.90
24384;DHT22;12504;52.870;8.798;2023-05-31T05:04:04;10.20;99.90
24384;DHT22;12504;52.870;8.798;2023-05-31T05:06:29;10.20;99.90
24384;DHT22;12504;52.870;8.798;2023-05-31T05:08:55;10.20;99.90
24384;DHT22;12504;52.870;8.798;2023-05-31T05:11:23;10.20;99.90
24384;DHT22;12504;52.870;8.798;2023-05-31T05:13:49;10.20;99.90
24384;DHT22;12504;52.870;8.798;2023-05-31T05:16:14;10.20;99.90
24384;DHT22;12504;52.870;8.798;2023-05-31T05:18:40;10.20;99.90
24384;DHT22;12504;52.870;8.798;2023-05-31T05:21:06;10.30;99.90
24384;DHT22;12504;52.870;8.798;2023-05-31T05:23:34;10.30;99.90
24384;DHT22;12504;52.870;8.798;2023-05-31T05:26:02;10.40;99.90
24384;DHT22;12504;52.870;8.798;2023-05-31T05:28:28;10.40;99.90
24384;DHT22;12504;52.870;8.798;2023-05-31T05:30:55;10.50;99.90
24384;DHT22;12504;52.870;8.798;2023-05-31T05:33:22;10.50;99.90
24384;DHT22;12504;52.870;8.798;2023-05-31T05:35:48;10.60;99.90
24384;DHT22;12504;52.870;8.798;2023-05-31T05:38:14;10.70;99.90
24384;DHT22;12504;52.870;8.798;2023-05-31T05:40:40;10.80;99.90
24384;DHT22;12504;52.870;8.798;2023-05-31T05:43:05;10.90;99.90
24384;DHT22;12504;52.870;8.798;2023-05-31T05:45:38;11.00;99.90
24384;DHT22;12504;52.870;8.798;2023-05-31T05:48:03;11.20;99.90
24384;DHT22;12504;52.870;8.798;2023-05-31T05:50:29;11.30;99.90
24384;DHT22;12504;52.870;8.798;2023-05-31T05:52:55;11.50;99.90
24384;DHT22;12504;52.870;8.798;2023-05-31T05:55:22;11.50;99.90
24384;DHT22;12504;52.870;8.798;2023-05-31T05:57:47;11.50;99.90
24384;DHT22;12504;52.870;8.798;2023-05-31T06:00:31;11.70;99.90
24384;DHT22;12504;52.870;8.798;2023-05-31T06:02:57;11.80;99.90
24384;DHT22;12504;52.870;8.798;2023-05-31T06:05:23;11.90;99.90
24384;DHT22;12504;52.870;8.798;2023-05-31T06:07:52;12.20;99.90
24384;DHT22;12504;52.870;8.798;2023-05-31T06:10:18;12.60;99.90
24384;DHT22;12504;52.870;8.798;2023-05-31T06:12:44;12.80;99.90
24384;DHT22;12504;52.870;8.798;2023-05-31T06:15:10;12.90;99.90
24384;DHT22;12504;52.870;8.798;2023-05-31T06:17:37;12.90;99.90
24384;DHT22;12504;52.870;8.798;2023-05-31T06:20:03;13.00;99.90
24384;DHT22;12504;52.870;8.798;2023-05-31T06:22:30;13.10;99.90
24384;DHT22;12504;52.870;8.798;2023-05-31T06:24:57;13.10;99.90
24384;DHT22;12504;52.870;8.798;2023-05-31T06:27:23;13.40;99.90
24384;DHT22;12504;52.870;8.798;2023-05-31T06:29:49;13.70;99.90
24384;DHT22;12504;52.870;8.798;2023-05-31T06:32:30;14.00;99.90
24384;DHT22;12504;52.870;8.798;2023-05-31T06:34:56;14.40;99.90
24384;DHT22;12504;52.870;8.798;2023-05-31T06:37:22;14.60;99.90
24384;DHT22;12504;52.870;8.798;2023-05-31T06:39:48;14.70;99.90
24384;DHT22;12504;52.870;8.798;2023-05-31T06:42:14;14.80;99.90
24384;DHT22;12504;52.870;8.798;2023-05-31T06:44:45;14.80;99.90
24384;DHT22;12504;52.870;8.798;2023-05-31T06:47:20;14.90;99.90
24384;DHT22;12504;52.870;8.798;2023-05-31T06:50:22;15.10;99.90
24384;DHT22;12504;52.870;8.798;2023-05-31T06:53:02;15.30;99.90
24384;DHT22;12504;52.870;8.798;2023-05-31T06:55:41;15.40;99.90
24384;DHT22;12504;52.870;8.798;2023-05-31T06:58:09;15.40;99.90
24384;DHT22;12504;52.870;8.798;2023-05-31T07:00:39;15.40;99.90
24384;DHT22;12504;52.870;8.798;2023-05-31T07:03:04;15.50;99.90
24384;DHT22;12504;52.870;8.798;2023-05-31T07:05:32;15.50;99.90
24384;DHT22;12504;52.870;8.798;2023-05-31T07:07:58;15.50;99.90
24384;DHT22;12504;52.870;8.798;2023-05-31T07:10:24;15.60;99.90
24384;DHT22;12504;52.870;8.798;2023-05-31T07:12:50;15.60;99.90
24384;DHT22;12504;52.870;8.798;2023-05-31T07:15:16;15.60;99.90
24384;DHT22;12504;52.870;8.798;2023-05-31T07:17:42;15.80;99.90
24384;DHT22;12504;52.870;8.798;2023-05-31T07:20:08;15.90;99.90
24384;DHT22;12504;52.870;8.798;2023-05-31T07:22:34;16.00;99.90
24384;DHT22;12504;52.870;8.798;2023-05-31T07:25:00;16.10;99.90
24384;DHT22;12504;52.870;8.798;2023-05-31T07:27:25;16.20;99.90
24384;DHT22;12504;52.870;8.798;2023-05-31T07:29:51;16.30;99.90
24384;DHT22;12504;52.870;8.798;2023-05-31T07:32:16;16.40;99.90
24384;DHT22;12504;52.870;8.798;2023-05-31T07:34:42;16.40;99.90
24384;DHT22;12504;52.870;8.798;2023-05-31T07:37:08;16.50;99.90
24384;DHT22;12504;52.870;8.798;2023-05-31T07:39:33;16.50;99.90
24384;DHT22;12504;52.870;8.798;2023-05-31T07:41:59;16.60;99.90
24384;DHT22;12504;52.870;8.798;2023-05-31T07:44:26;16.70;99.90
24384;DHT22;12504;52.870;8.798;2023-05-31T07:46:52;16.80;99.90
24384;DHT22;12504;52.870;8.798;2023-05-31T07:49:17;16.90;99.90
24384;DHT22;12504;52.870;8.798;2023-05-31T07:51:43;17.10;99.90
24384;DHT22;12504;52.870;8.798;2023-05-31T07:54:08;17.10;99.90
24384;DHT22;12504;52.870;8.798;2023-05-31T07:56:34;17.10;99.90
24384;DHT22;12504;52.870;8.798;2023-05-31T07:58:59;17.00;99.90
24384;DHT22;12504;52.870;8.798;2023-05-31T08:01:25;17.10;99.90
24384;DHT22;12504;52.870;8.798;2023-05-31T08:03:53;17.30;99.90
24384;DHT22;12504;52.870;8.798;2023-05-31T08:06:19;17.30;99.90
24384;DHT22;12504;52.870;8.798;2023-05-31T08:08:45;17.40;99.90
24384;DHT22;12504;52.870;8.798;2023-05-31T08:11:11;17.50;99.90
24384;DHT22;12504;52.870;8.798;2023-05-31T08:13:37;17.50;99.90
24384;DHT22;12504;52.870;8.798;2023-05-31T08:16:03;17.70;99.90
24384;DHT22;12504;52.870;8.798;2023-05-31T08:18:29;17.70;94.40
24384;DHT22;12504;52.870;8.798;2023-05-31T08:20:55;17.90;99.90
24384;DHT22;12504;52.870;8.798;2023-05-31T08:23:21;18.10;86.80
24384;DHT22;12504;52.870;8.798;2023-05-31T08:25:47;18.10;92.30
24384;DHT22;12504;52.870;8.798;2023-05-31T08:28:13;18.20;99.90
24384;DHT22;12504;52.870;8.798;2023-05-31T08:30:39;18.20;99.90
24384;DHT22;12504;52.870;8.798;2023-05-31T08:33:04;18.40;99.90
24384;DHT22;12504;52.870;8.798;2023-05-31T08:35:30;18.60;99.90
24384;DHT22;12504;52.870;8.798;2023-05-31T08:37:56;18.70;94.30
24384;DHT22;12504;52.870;8.798;2023-05-31T08:40:21;18.60;99.90
24384;DHT22;12504;52.870;8.798;2023-05-31T08:45:13;18.70;38.60
24384;DHT22;12504;52.870;8.798;2023-05-31T08:47:41;18.90;23.00
24384;DHT22;12504;52.870;8.798;2023-05-31T08:50:08;18.90;1.00
24384;DHT22;12504;52.870;8.798;2023-05-31T08:52:34;19.00;1.00
24384;DHT22;12504;52.870;8.798;2023-05-31T08:55:00;19.10;1.00
24384;DHT22;12504;52.870;8.798;2023-05-31T08:57:26;19.20;1.00
24384;DHT22;12504;52.870;8.798;2023-05-31T08:59:55;19.30;1.00
24384;DHT22;12504;52.870;8.798;2023-05-31T09:02:21;19.40;1.00
24384;DHT22;12504;52.870;8.798;2023-05-31T09:04:47;19.50;1.00
24384;DHT22;12504;52.870;8.798;2023-05-31T09:07:12;19.50;1.00
24384;DHT22;12504;52.870;8.798;2023-05-31T09:09:38;19.50;1.00
24384;DHT22;12504;52.870;8.798;2023-05-31T09:12:05;19.60;1.00
24384;DHT22;12504;52.870;8.798;2023-05-31T09:14:31;19.80;1.00
24384;DHT22;12504;52.870;8.798;2023-05-31T09:16:57;20.00;99.90
24384;DHT22;12504;52.870;8.798;2023-05-31T09:19:23;20.20;99.90
24384;DHT22;12504;52.870;8.798;2023-05-31T09:21:48;20.20;99.90
24384;DHT22;12504;52.870;8.798;2023-05-31T09:24:14;20.30;99.90
24384;DHT22;12504;52.870;8.798;2023-05-31T09:26:45;20.40;1.00
24384;DHT22;12504;52.870;8.798;2023-05-31T09:29:12;20.20;99.90
24384;DHT22;12504;52.870;8.798;2023-05-31T09:31:37;20.30;99.90
24384;DHT22;12504;52.870;8.798;2023-05-31T09:34:03;20.40;99.90
24384;DHT22;12504;52.870;8.798;2023-05-31T09:36:29;20.70;99.90
24384;DHT22;12504;52.870;8.798;2023-05-31T09:38:59;20.60;1.00
24384;DHT22;12504;52.870;8.798;2023-05-31T09:41:27;20.70;71.40
24384;DHT22;12504;52.870;8.798;2023-05-31T09:43:52;20.80;99.90
24384;DHT22;12504;52.870;8.798;2023-05-31T09:46:19;20.90;99.90
24384;DHT22;12504;52.870;8.798;2023-05-31T09:48:45;20.80;99.90
24384;DHT22;12504;52.870;8.798;2023-05-31T09:51:11;20.50;99.90
24384;DHT22;12504;52.870;8.798;2023-05-31T09:53:42;20.50;99.90
24384;DHT22;12504;52.870;8.798;2023-05-31T09:56:09;20.80;99.90
24384;DHT22;12504;52.870;8.798;2023-05-31T09:58:35;20.80;99.90
24384;DHT22;12504;52.870;8.798;2023-05-31T10:01:01;20.90;99.90
24384;DHT22;12504;52.870;8.798;2023-05-31T10:03:27;21.10;99.90
24384;DHT22;12504;52.870;8.798;2023-05-31T10:05:53;21.20;99.90
24384;DHT22;12504;52.870;8.798;2023-05-31T10:08:20;21.30;99.90
24384;DHT22;12504;52.870;8.798;2023-05-31T10:10:45;21.40;99.90
24384;DHT22;12504;52.870;8.798;2023-05-31T10:13:11;21.40;99.90
24384;DHT22;12504;52.870;8.798;2023-05-31T10:15:38;21.60;99.90
24384;DHT22;12504;52.870;8.798;2023-05-31T10:18:13;21.80;99.90
24384;DHT22;12504;52.870;8.798;2023-05-31T10:23:08;22.00;99.90
24384;DHT22;12504;52.870;8.798;2023-05-31T10:25:37;22.00;4.00
24384;DHT22;12504;52.870;8.798;2023-05-31T10:28:07;22.10;1.00
24384;DHT22;12504;52.870;8.798;2023-05-31T10:30:35;22.20;1.00
24384;DHT22;12504;52.870;8.798;2023-05-31T10:33:06;22.40;5.20
24384;DHT22;12504;52.870;8.798;2023-05-31T10:35:33;22.70;99.90
24384;DHT22;12504;52.870;8.798;2023-05-31T10:37:59;23.00;1.00
24384;DHT22;12504;52.870;8.798;2023-05-31T10:48:10;26.00;99.90
24384;DHT22;12504;52.870;8.798;2023-05-31T10:50:57;26.60;99.90
24384;DHT22;12504;52.870;8.798;2023-05-31T10:53:39;26.60;99.90
24384;DHT22;12504;52.870;8.798;2023-05-31T10:56:05;28.20;99.90
24384;DHT22;12504;52.870;8.798;2023-05-31T10:58:38;28.50;99.90
24384;DHT22;12504;52.870;8.798;2023-05-31T11:01:05;28.80;99.90
24384;DHT22;12504;52.870;8.798;2023-05-31T11:03:33;28.90;99.90
24384;DHT22;12504;52.870;8.798;2023-05-31T11:05:59;29.30;99.90
24384;DHT22;12504;52.870;8.798;2023-05-31T11:08:26;29.50;99.90
24384;DHT22;12504;52.870;8.798;2023-05-31T11:10:51;29.50;99.90
24384;DHT22;12504;52.870;8.798;2023-05-31T11:13:17;29.30;98.20
24384;DHT22;12504;52.870;8.798;2023-05-31T11:15:44;29.00;98.10
24384;DHT22;12504;52.870;8.798;2023-05-31T11:18:14;28.30;97.40
24384;DHT22;12504;52.870;8.798;2023-05-31T11:20:40;28.40;98.90
24384;DHT22;12504;52.870;8.798;2023-05-31T11:25:43;28.70;96.60
24384;DHT22;12504;52.870;8.798;2023-05-31T11:28:09;29.00;96.20
24384;DHT22;12504;52.870;8.798;2023-05-31T11:30:36;28.90;94.90
24384;DHT22;12504;52.870;8.798;2023-05-31T11:33:02;29.00;94.70
24384;DHT22;12504;52.870;8.798;2023-05-31T11:35:30;29.80;93.00
24384;DHT22;12504;52.870;8.798;2023-05-31T11:38:00;30.20;92.70
24384;DHT22;12504;52.870;8.798;2023-05-31T11:40:27;30.20;92.50
24384;DHT22;12504;52.870;8.798;2023-05-31T11:42:53;29.80;93.30
24384;DHT22;12504;52.870;8.798;2023-05-31T11:45:21;29.20;91.70
24384;DHT22;12504;52.870;8.798;2023-05-31T11:50:14;29.60;93.30
24384;DHT22;12504;52.870;8.798;2023-05-31T11:52:42;31.10;90.90
24384;DHT22;12504;52.870;8.798;2023-05-31T11:55:08;30.80;90.70
24384;DHT22;12504;52.870;8.798;2023-05-31T11:57:41;30.30;90.40
24384;DHT22;12504;52.870;8.798;2023-05-31T12:00:07;31.30;88.50
24384;DHT22;12504;52.870;8.798;2023-05-31T12:02:37;31.40;85.80
24384;DHT22;12504;52.870;8.798;2023-05-31T12:05:03;30.50;87.10
24384;DHT22;12504;52.870;8.798;2023-05-31T12:07:29;30.20;88.10
24384;DHT22;12504;52.870;8.798;2023-05-31T12:09:55;31.00;86.70
24384;DHT22;12504;52.870;8.798;2023-05-31T12:12:21;31.30;86.60
24384;DHT22;12504;52.870;8.798;2023-05-31T12:14:51;31.00;85.30
24384;DHT22;12504;52.870;8.798;2023-05-31T12:17:17;31.10;85.10
24384;DHT22;12504;52.870;8.798;2023-05-31T12:19:42;31.00;85.00
24384;DHT22;12504;52.870;8.798;2023-05-31T12:22:08;30.30;86.10
24384;DHT22;12504;52.870;8.798;2023-05-31T12:24:36;30.50;88.40
24384;DHT22;12504;52.870;8.798;2023-05-31T12:27:02;31.60;86.70
24384;DHT22;12504;52.870;8.798;2023-05-31T12:29:30;31.20;85.50
24384;DHT22;12504;52.870;8.798;2023-05-31T12:32:00;30.60;86.00
24384;DHT22;12504;52.870;8.798;2023-05-31T12:34:26;30.30;87.50
24384;DHT22;12504;52.870;8.798;2023-05-31T12:36:51;30.40;88.80
24384;DHT22;12504;52.870;8.798;2023-05-31T12:39:20;30.50;90.00
24384;DHT22;12504;52.870;8.798;2023-05-31T12:41:47;30.60;90.80
24384;DHT22;12504;52.870;8.798;2023-05-31T12:44:13;29.90;91.80
24384;DHT22;12504;52.870;8.798;2023-05-31T12:46:41;30.50;92.10
24384;DHT22;12504;52.870;8.798;2023-05-31T12:49:18;30.70;91.80
24384;DHT22;12504;52.870;8.798;2023-05-31T12:51:45;29.90;92.90
24384;DHT22;12504;52.870;8.798;2023-05-31T12:54:11;29.60;93.80
24384;DHT22;12504;52.870;8.798;2023-05-31T12:56:37;29.70;93.80
24384;DHT22;12504;52.870;8.798;2023-05-31T12:59:02;29.60;94.50
24384;DHT22;12504;52.870;8.798;2023-05-31T13:01:28;29.80;94.00
24384;DHT22;12504;52.870;8.798;2023-05-31T13:03:53;29.70;93.30
24384;DHT22;12504;52.870;8.798;2023-05-31T13:06:19;29.10;93.90
24384;DHT22;12504;52.870;8.798;2023-05-31T13:08:44;28.50;94.20
24384;DHT22;12504;52.870;8.798;2023-05-31T13:11:10;28.10;95.00
24384;DHT22;12504;52.870;8.798;2023-05-31T13:13:36;27.80;94.90
24384;DHT22;12504;52.870;8.798;2023-05-31T13:16:02;27.70;94.80
24384;DHT22;12504;52.870;8.798;2023-05-31T13:18:30;27.50;95.20
24384;DHT22;12504;52.870;8.798;2023-05-31T13:20:55;27.20;95.70
24384;DHT22;12504;52.870;8.798;2023-05-31T13:23:23;27.50;95.70
24384;DHT22;12504;52.870;8.798;2023-05-31T13:25:49;27.70;95.10
24384;DHT22;12504;52.870;8.798;2023-05-31T13:28:15;27.90;94.60
24384;DHT22;12504;52.870;8.798;2023-05-31T13:30:41;28.00;94.50
24384;DHT22;12504;52.870;8.798;2023-05-31T13:33:07;27.90;95.00
24384;DHT22;12504;52.870;8.798;2023-05-31T13:35:32;27.90;94.60
24384;DHT22;12504;52.870;8.798;2023-05-31T13:37:58;27.40;94.60
24384;DHT22;12504;52.870;8.798;2023-05-31T13:40:23;27.20;94.60
24384;DHT22;12504;52.870;8.798;2023-05-31T13:42:49;27.00;94.60
24384;DHT22;12504;52.870;8.798;2023-05-31T13:45:15;27.60;94.90
24384;DHT22;12504;52.870;8.798;2023-05-31T13:47:40;27.50;94.50
24384;DHT22;12504;52.870;8.798;2023-05-31T13:50:07;27.10;95.40
24384;DHT22;12504;52.870;8.798;2023-05-31T13:52:32;27.20;95.30
24384;DHT22;12504;52.870;8.798;2023-05-31T13:54:58;27.60;94.30
24384;DHT22;12504;52.870;8.798;2023-05-31T13:57:25;27.30;93.70
24384;DHT22;12504;52.870;8.798;2023-05-31T13:59:51;27.10;95.30
24384;DHT22;12504;52.870;8.798;2023-05-31T14:02:17;27.50;94.20
24384;DHT22;12504;52.870;8.798;2023-05-31T14:04:42;27.30;94.30
24384;DHT22;12504;52.870;8.798;2023-05-31T14:07:08;26.60;95.10
24384;DHT22;12504;52.870;8.798;2023-05-31T14:09:33;26.90;95.00
24384;DHT22;12504;52.870;8.798;2023-05-31T14:11:59;26.80;95.00
24384;DHT22;12504;52.870;8.798;2023-05-31T14:14:25;27.10;94.00
24384;DHT22;12504;52.870;8.798;2023-05-31T14:16:51;26.80;94.00
24384;DHT22;12504;52.870;8.798;2023-05-31T14:19:18;26.40;95.70
24384;DHT22;12504;52.870;8.798;2023-05-31T14:21:43;26.40;95.00
24384;DHT22;12504;52.870;8.798;2023-05-31T14:24:09;26.30;95.00
24384;DHT22;12504;52.870;8.798;2023-05-31T14:26:34;26.70;95.90
24384;DHT22;12504;52.870;8.798;2023-05-31T14:29:00;26.80;95.50
24384;DHT22;12504;52.870;8.798;2023-05-31T14:31:26;26.60;94.80
24384;DHT22;12504;52.870;8.798;2023-05-31T14:33:51;26.60;95.40
24384;DHT22;12504;52.870;8.798;2023-05-31T14:36:17;26.20;96.00
24384;DHT22;12504;52.870;8.798;2023-05-31T14:38:43;25.90;95.80
24384;DHT22;12504;52.870;8.798;2023-05-31T14:41:08;26.00;95.30
24384;DHT22;12504;52.870;8.798;2023-05-31T14:43:34;26.10;95.50
24384;DHT22;12504;52.870;8.798;2023-05-31T14:45:59;26.40;95.00
24384;DHT22;12504;52.870;8.798;2023-05-31T14:48:25;26.60;95.20
24384;DHT22;12504;52.870;8.798;2023-05-31T14:50:51;26.20;95.30
24384;DHT22;12504;52.870;8.798;2023-05-31T14:53:16;26.20;95.40
24384;DHT22;12504;52.870;8.798;2023-05-31T14:55:42;26.40;95.20
24384;DHT22;12504;52.870;8.798;2023-05-31T14:58:08;26.20;95.00
24384;DHT22;12504;52.870;8.798;2023-05-31T15:00:34;26.60;94.60
24384;DHT22;12504;52.870;8.798;2023-05-31T15:03:00;26.50;93.60
24384;DHT22;12504;52.870;8.798;2023-05-31T15:05:26;25.70;95.30
24384;DHT22;12504;52.870;8.798;2023-05-31T15:07:51;26.20;94.70
24384;DHT22;12504;52.870;8.798;2023-05-31T15:10:17;26.20;93.50
24384;DHT22;12504;52.870;8.798;2023-05-31T15:12:42;26.30;94.40
24384;DHT22;12504;52.870;8.798;2023-05-31T15:15:08;26.00;93.90
24384;DHT22;12504;52.870;8.798;2023-05-31T15:17:37;26.50;94.70
24384;DHT22;12504;52.870;8.798;2023-05-31T15:20:05;26.60;93.70
24384;DHT22;12504;52.870;8.798;2023-05-31T15:22:31;26.70;93.70
24384;DHT22;12504;52.870;8.798;2023-05-31T15:24:57;26.50;94.80
24384;DHT22;12504;52.870;8.798;2023-05-31T15:27:23;26.50;94.60
24384;DHT22;12504;52.870;8.798;2023-05-31T15:29:48;26.30;94.00
24384;DHT22;12504;52.870;8.798;2023-05-31T15:32:14;26.20;93.40
24384;DHT22;12504;52.870;8.798;2023-05-31T15:34:39;26.20;93.30
24384;DHT22;12504;52.870;8.798;2023-05-31T15:37:05;26.00;93.90
24384;DHT22;12504;52.870;8.798;2023-05-31T15:39:30;25.80;94.60
24384;DHT22;12504;52.870;8.798;2023-05-31T15:41:56;25.80;94.90
24384;DHT22;12504;52.870;8.798;2023-05-31T15:44:21;25.70;95.30
24384;DHT22;12504;52.870;8.798;2023-05-31T15:46:47;25.60;95.00
24384;DHT22;12504;52.870;8.798;2023-05-31T15:49:13;25.70;95.40
24384;DHT22;12504;52.870;8.798;2023-05-31T15:51:39;25.70;94.50
24384;DHT22;12504;52.870;8.798;2023-05-31T15:54:04;25.90;95.40
24384;DHT22;12504;52.870;8.798;2023-05-31T15:56:30;26.00;94.40
24384;DHT22;12504;52.870;8.798;2023-05-31T15:58:56;25.60;94.20